createdAt,value
2024-02-05T00:00:50.841Z,10.70
2024-02-05T00:03:20.359Z,10.70
2024-02-05T00:05:49.621Z,10.60
2024-02-05T00:08:20.250Z,10.80
2024-02-05T00:10:51.744Z,10.70
2024-02-05T00:13:21.305Z,10.70
2024-02-05T00:16:05.721Z,10.90
2024-02-05T00:18:34.243Z,10.80
2024-02-05T00:21:13.967Z,11.00
2024-02-05T00:23:44.000Z,10.90
2024-02-05T00:26:13.232Z,11.00
2024-02-05T00:28:42.140Z,11.10
2024-02-05T00:31:14.732Z,11.00
2024-02-05T00:33:43.584Z,11.00
2024-02-05T00:36:12.626Z,11.10
2024-02-05T00:38:41.374Z,11.10
2024-02-05T00:41:13.202Z,10.90
2024-02-05T00:43:41.884Z,11.20
2024-02-05T00:46:24.109Z,10.80
2024-02-05T00:48:56.974Z,10.70
2024-02-05T00:51:31.395Z,10.70
2024-02-05T00:54:01.961Z,10.80
2024-02-05T00:56:31.451Z,10.80
2024-02-05T00:59:00.121Z,10.80
2024-02-05T01:01:35.369Z,10.60
2024-02-05T01:04:07.158Z,10.60
2024-02-05T01:06:36.278Z,10.60
2024-02-05T01:09:09.955Z,10.50
2024-02-05T01:11:40.124Z,10.60
2024-02-05T01:14:14.079Z,10.60
2024-02-05T01:16:44.342Z,10.50
2024-02-05T01:19:15.745Z,10.50
2024-02-05T01:21:47.062Z,11.10
2024-02-05T01:24:18.283Z,11.10
2024-02-05T01:26:47.187Z,10.40
2024-02-05T01:29:15.914Z,9.20
2024-02-05T01:31:46.754Z,10.40
2024-02-05T01:34:16.197Z,10.40
2024-02-05T01:36:44.814Z,10.40
2024-02-05T01:39:13.786Z,10.30
2024-02-05T01:41:45.519Z,10.80
2024-02-05T01:44:14.534Z,9.50
2024-02-05T01:46:45.199Z,11.60
2024-02-05T01:49:15.698Z,10.20
2024-02-05T01:51:49.697Z,10.20
2024-02-05T01:54:20.409Z,10.10
2024-02-05T01:56:54.293Z,10.20
2024-02-05T01:59:23.307Z,10.10
2024-02-05T02:01:52.610Z,10.10
2024-02-05T02:04:22.755Z,10.00
2024-02-05T02:06:55.276Z,9.90
2024-02-05T02:09:25.544Z,10.10
2024-02-05T02:11:54.702Z,10.00
2024-02-05T02:14:33.877Z,10.10
2024-02-05T02:17:13.620Z,10.10
2024-02-05T02:19:49.634Z,10.10
2024-02-05T02:22:32.472Z,10.10
2024-02-05T02:25:02.513Z,10.00
2024-02-05T02:27:34.012Z,10.10
2024-02-05T02:30:03.632Z,10.00
2024-02-05T02:32:39.520Z,10.00
2024-02-05T02:35:18.336Z,10.00
2024-02-05T02:37:58.882Z,10.00
2024-02-05T02:40:33.266Z,10.00
2024-02-05T02:43:05.142Z,10.10
2024-02-05T02:45:38.181Z,10.10
2024-02-05T02:48:08.319Z,10.10
2024-02-05T02:50:38.308Z,10.10
2024-02-05T02:53:08.981Z,10.10
2024-02-05T02:55:39.115Z,10.00
2024-02-05T02:58:07.688Z,10.00
2024-02-05T03:00:37.317Z,9.90
2024-02-05T03:03:08.139Z,9.90
2024-02-05T03:05:36.498Z,9.70
2024-02-05T03:08:05.270Z,9.70
2024-02-05T03:10:33.690Z,9.60
2024-02-05T03:13:03.485Z,9.60
2024-02-05T03:15:32.267Z,9.50
2024-02-05T03:18:01.683Z,9.30
2024-02-05T03:20:37.834Z,9.50
2024-02-05T03:23:10.499Z,9.50
2024-02-05T03:25:41.492Z,9.50
2024-02-05T03:28:12.033Z,9.50
2024-02-05T03:30:41.752Z,8.90
2024-02-05T03:33:10.722Z,9.90
2024-02-05T03:35:40.881Z,9.50
2024-02-05T03:38:09.876Z,9.70
2024-02-05T03:40:38.941Z,8.70
2024-02-05T03:43:08.048Z,9.50
2024-02-05T03:45:38.315Z,9.60
2024-02-05T03:48:08.933Z,9.50
2024-02-05T03:50:37.972Z,9.50
2024-02-05T03:53:07.138Z,9.00
2024-02-05T03:55:36.316Z,9.50
2024-02-05T03:58:06.838Z,9.50
2024-02-05T04:00:35.924Z,9.50
2024-02-05T04:03:07.459Z,9.50
2024-02-05T04:05:36.479Z,9.50
2024-02-05T04:08:07.468Z,9.50
2024-02-05T04:10:37.626Z,9.30
2024-02-05T04:13:06.506Z,9.40
2024-02-05T04:15:36.213Z,9.40
2024-02-05T04:18:06.736Z,8.80
2024-02-05T04:20:35.224Z,9.30
2024-02-05T04:23:06.781Z,9.30
2024-02-05T04:25:35.440Z,9.20
2024-02-05T04:28:04.245Z,9.20
2024-02-05T04:30:38.485Z,9.20
2024-02-05T04:33:09.290Z,9.10
2024-02-05T04:35:38.020Z,9.10
2024-02-05T04:38:06.596Z,9.00
2024-02-05T04:40:34.981Z,9.00
2024-02-05T04:43:03.454Z,9.00
2024-02-05T04:45:31.778Z,9.00
2024-02-05T04:48:00.127Z,9.00
2024-02-05T04:50:29.946Z,9.00
2024-02-05T04:52:58.324Z,8.90
2024-02-05T04:55:26.797Z,8.90
2024-02-05T04:57:55.349Z,8.90
2024-02-05T05:00:24.199Z,8.90
2024-02-05T05:02:52.928Z,8.90
2024-02-05T05:05:21.387Z,8.90
2024-02-05T05:07:53.805Z,8.90
2024-02-05T05:10:22.345Z,8.80
2024-02-05T05:12:50.888Z,8.80
2024-02-05T05:15:19.692Z,8.80
2024-02-05T05:17:48.148Z,8.80
2024-02-05T05:20:16.841Z,8.80
2024-02-05T05:22:46.521Z,8.80
2024-02-05T05:25:16.465Z,8.80
2024-02-05T05:27:44.941Z,8.90
2024-02-05T05:30:14.273Z,8.90
2024-02-05T05:32:42.718Z,8.90
2024-02-05T05:35:12.597Z,8.90
2024-02-05T05:37:42.467Z,9.00
2024-02-05T05:40:12.166Z,9.10
2024-02-05T05:42:42.219Z,9.10
2024-02-05T05:45:11.017Z,9.30
2024-02-05T05:47:40.777Z,9.30
2024-02-05T05:50:11.942Z,9.00
2024-02-05T05:52:41.152Z,9.30
2024-02-05T05:55:11.215Z,9.30
2024-02-05T05:57:41.192Z,9.40
2024-02-05T06:00:10.999Z,9.50
2024-02-05T06:02:39.643Z,9.60
2024-02-05T06:05:11.288Z,9.70
2024-02-05T06:07:41.061Z,9.90
2024-02-05T06:10:11.234Z,10.10
2024-02-05T06:13:03.523Z,10.20
2024-02-05T06:18:43.532Z,10.40
2024-02-05T06:21:19.286Z,10.40
2024-02-05T06:23:49.226Z,10.40
2024-02-05T06:26:20.393Z,10.50
2024-02-05T06:28:51.388Z,10.50
2024-02-05T06:31:27.683Z,10.70
2024-02-05T06:33:57.680Z,10.60
2024-02-05T06:36:31.157Z,10.70
2024-02-05T06:39:03.843Z,10.80
2024-02-05T06:41:35.677Z,10.80
2024-02-05T06:44:07.471Z,10.70
2024-02-05T06:46:39.385Z,10.20
2024-02-05T06:49:11.317Z,10.50
2024-02-05T06:51:41.488Z,11.10
2024-02-05T06:54:10.895Z,11.00
2024-02-05T06:56:41.868Z,11.10
2024-02-05T06:59:14.893Z,11.10
2024-02-05T07:01:52.520Z,11.20
2024-02-05T07:04:24.173Z,11.10
2024-02-05T07:06:53.919Z,11.20
2024-02-05T07:09:33.658Z,11.30
2024-02-05T07:12:02.816Z,11.40
2024-02-05T07:14:34.943Z,11.30
2024-02-05T07:17:06.918Z,11.40
2024-02-05T07:19:43.206Z,11.40
2024-02-05T07:22:29.548Z,11.50
2024-02-05T07:25:03.254Z,11.50
2024-02-05T07:27:36.735Z,11.60
2024-02-05T07:30:14.549Z,12.30
2024-02-05T07:32:44.130Z,12.20
2024-02-05T07:35:15.308Z,11.70
2024-02-05T07:37:46.410Z,11.80
2024-02-05T07:40:38.540Z,12.00
2024-02-05T07:43:26.088Z,11.90
2024-02-05T07:45:58.946Z,10.70
2024-02-05T07:51:22.637Z,11.80
2024-02-05T07:54:16.833Z,11.80
2024-02-05T07:56:52.325Z,11.80
2024-02-05T07:59:24.912Z,11.80
2024-02-05T08:01:56.222Z,11.70
2024-02-05T08:04:35.059Z,11.80
2024-02-05T08:07:11.897Z,11.80
2024-02-05T08:09:42.944Z,12.00
2024-02-05T08:12:25.157Z,12.20
2024-02-05T08:14:59.203Z,12.20
2024-02-05T08:17:41.677Z,12.20
2024-02-05T08:20:13.175Z,12.20
2024-02-05T08:22:49.433Z,12.30
2024-02-05T08:25:30.927Z,12.30
2024-02-05T08:28:13.632Z,12.40
2024-02-05T08:30:48.064Z,12.50
2024-02-05T08:33:22.027Z,12.60
2024-02-05T08:36:24.716Z,12.60
2024-02-05T08:38:53.442Z,12.60
2024-02-05T08:41:25.482Z,12.50
2024-02-05T08:44:03.577Z,12.50
2024-02-05T08:46:44.478Z,12.30
2024-02-05T08:49:25.157Z,12.50
2024-02-05T08:54:56.804Z,12.40
2024-02-05T08:57:27.566Z,12.50
2024-02-05T09:00:02.345Z,12.50
2024-02-05T09:03:01.072Z,12.50
2024-02-05T09:06:07.961Z,12.50
2024-02-05T09:08:50.144Z,12.50
2024-02-05T09:14:19.735Z,12.50
2024-02-05T09:17:21.373Z,12.50
2024-02-05T09:19:56.697Z,12.40
2024-02-05T09:23:08.600Z,12.40
2024-02-05T09:25:49.154Z,12.40
2024-02-05T09:28:24.542Z,12.50
2024-02-05T09:31:06.147Z,12.50
2024-02-05T09:33:46.920Z,12.60
2024-02-05T09:36:25.596Z,12.60
2024-02-05T09:39:25.769Z,12.70
2024-02-05T09:42:16.301Z,12.70
2024-02-05T09:45:00.808Z,12.00
2024-02-05T09:47:48.598Z,12.90
2024-02-05T09:50:24.161Z,12.90
2024-02-05T09:53:48.936Z,13.00
2024-02-05T09:59:30.004Z,12.90
2024-02-05T10:02:08.427Z,13.00
2024-02-05T10:07:50.973Z,13.20
2024-02-05T10:10:32.335Z,13.30
2024-02-05T10:13:39.113Z,13.30
2024-02-05T10:16:20.822Z,13.40
2024-02-05T10:18:52.637Z,13.50
2024-02-05T10:21:22.078Z,13.60
2024-02-05T10:23:55.577Z,13.70
2024-02-05T10:26:48.418Z,13.70
2024-02-05T10:29:26.118Z,13.90
2024-02-05T10:32:00.357Z,13.80
2024-02-05T10:35:21.522Z,13.70
2024-02-05T10:37:59.039Z,13.80
2024-02-05T10:40:44.610Z,13.90
2024-02-05T10:46:05.775Z,14.10
2024-02-05T10:48:36.937Z,14.10
2024-02-05T10:51:09.532Z,14.20
2024-02-05T10:53:49.340Z,14.10
2024-02-05T10:56:19.621Z,14.20
2024-02-05T10:58:50.066Z,14.20
2024-02-05T11:02:01.790Z,14.20
2024-02-05T11:04:41.736Z,14.00
2024-02-05T11:07:15.824Z,14.20
2024-02-05T11:09:47.611Z,14.40
2024-02-05T11:12:22.198Z,14.20
2024-02-05T11:15:01.187Z,14.20
2024-02-05T11:17:38.567Z,14.30
2024-02-05T11:20:12.950Z,14.30
2024-02-05T11:22:46.962Z,14.20
2024-02-05T11:25:19.413Z,14.10
2024-02-05T11:27:50.604Z,14.00
2024-02-05T11:30:21.738Z,14.00
2024-02-05T11:32:51.759Z,13.90
2024-02-05T11:35:30.284Z,13.80
2024-02-05T11:38:08.372Z,13.70
2024-02-05T11:40:53.434Z,13.70
2024-02-05T11:43:30.257Z,13.70
2024-02-05T11:46:05.022Z,13.60
2024-02-05T11:48:37.881Z,13.60
2024-02-05T11:51:20.295Z,13.60
2024-02-05T11:53:51.440Z,13.60
2024-02-05T11:56:21.048Z,13.60
2024-02-05T11:58:53.036Z,13.60
2024-02-05T12:01:24.280Z,13.70
2024-02-05T12:03:56.384Z,13.70
2024-02-05T12:06:53.916Z,13.90
2024-02-05T12:09:22.899Z,13.90
2024-02-05T12:11:57.021Z,13.80
2024-02-05T12:14:32.392Z,13.80
2024-02-05T12:17:30.876Z,13.80
2024-02-05T12:20:35.556Z,13.80
2024-02-05T12:23:07.764Z,13.80
2024-02-05T12:25:42.620Z,13.80
2024-02-05T12:28:19.792Z,13.70
2024-02-05T12:31:23.383Z,13.70
2024-02-05T12:34:20.900Z,13.70
2024-02-05T12:36:51.990Z,13.60
2024-02-05T12:39:26.951Z,13.60
2024-02-05T12:42:37.644Z,13.60
2024-02-05T12:45:32.108Z,13.50
2024-02-05T12:48:38.575Z,13.50
2024-02-05T12:51:19.041Z,13.60
2024-02-05T12:55:06.798Z,13.60
2024-02-05T12:57:57.330Z,13.70
2024-02-05T13:00:54.242Z,13.70
2024-02-05T13:04:00.497Z,13.80
2024-02-05T13:06:48.387Z,13.70
2024-02-05T13:10:13.136Z,13.60
2024-02-05T13:12:53.057Z,13.60
2024-02-05T13:16:18.970Z,13.60
2024-02-05T13:19:24.211Z,13.70
2024-02-05T13:21:54.731Z,13.70
2024-02-05T13:24:24.841Z,13.80
2024-02-05T13:27:02.089Z,13.90
2024-02-05T13:29:41.485Z,13.90
2024-02-05T13:32:16.597Z,14.00
2024-02-05T13:35:00.456Z,14.10
2024-02-05T13:37:41.005Z,14.00
2024-02-05T13:40:19.546Z,14.10
2024-02-05T13:43:02.778Z,14.20
2024-02-05T13:45:58.294Z,14.10
2024-02-05T13:49:06.814Z,14.10
2024-02-05T13:51:40.219Z,14.20
2024-02-05T14:00:24.696Z,14.20
2024-02-05T14:03:02.365Z,14.20
2024-02-05T14:05:59.955Z,14.20
2024-02-05T14:08:35.926Z,14.10
2024-02-05T14:11:33.182Z,14.10
2024-02-05T14:14:31.684Z,14.00
2024-02-05T14:26:57.061Z,13.80
2024-02-05T14:29:43.131Z,13.80
2024-02-05T14:38:19.848Z,13.60
2024-02-05T14:41:13.613Z,13.60
2024-02-05T14:43:48.740Z,13.50
2024-02-05T14:46:22.885Z,13.40
2024-02-05T14:48:57.635Z,13.50
2024-02-05T14:51:42.303Z,13.40
2024-02-05T14:54:15.087Z,13.40
2024-02-05T14:56:44.755Z,13.40
2024-02-05T14:59:31.934Z,13.40
2024-02-05T15:02:07.998Z,13.30
2024-02-05T15:04:43.136Z,13.30
2024-02-05T15:07:16.992Z,13.20
2024-02-05T15:09:48.044Z,13.20
2024-02-05T15:12:45.904Z,13.10
2024-02-05T15:15:21.638Z,13.10
2024-02-05T15:18:18.008Z,13.00
2024-02-05T15:23:38.877Z,13.00
2024-02-05T15:26:14.542Z,13.00
2024-02-05T15:29:07.033Z,12.90
2024-02-05T15:35:04.740Z,12.70
2024-02-05T15:37:49.161Z,12.60
2024-02-05T15:44:52.020Z,12.60
2024-02-05T15:51:31.283Z,12.40
2024-02-05T15:55:32.241Z,12.30
2024-02-05T15:58:26.636Z,12.30
2024-02-05T16:02:05.596Z,12.20
2024-02-05T16:05:24.140Z,12.10
2024-02-05T16:07:53.245Z,12.10
2024-02-05T16:10:23.212Z,12.10
2024-02-05T16:12:51.619Z,12.00
2024-02-05T16:15:20.037Z,11.90
2024-02-05T16:17:48.600Z,11.90
2024-02-05T16:20:21.235Z,10.80
2024-02-05T16:22:52.793Z,11.90
2024-02-05T16:25:28.447Z,11.80
2024-02-05T16:27:58.964Z,11.70
2024-02-05T16:30:31.470Z,11.70
2024-02-05T16:33:00.329Z,11.70
2024-02-05T16:35:29.017Z,11.60
2024-02-05T16:37:57.567Z,11.50
2024-02-05T16:40:27.916Z,11.50
2024-02-05T16:42:56.525Z,11.40
2024-02-05T16:45:24.945Z,11.30
2024-02-05T16:47:53.664Z,11.30
2024-02-05T16:50:22.682Z,11.20
2024-02-05T16:52:51.257Z,11.20
2024-02-05T16:55:20.137Z,11.10
2024-02-05T16:57:51.438Z,11.10
2024-02-05T17:00:23.072Z,11.60
2024-02-05T17:02:52.258Z,11.00
2024-02-05T17:05:21.414Z,10.70
2024-02-05T17:07:51.435Z,11.00
2024-02-05T17:10:23.558Z,11.50
2024-02-05T17:12:56.226Z,10.90
2024-02-05T17:15:25.591Z,10.90
2024-02-05T17:18:00.195Z,10.90
2024-02-05T17:20:29.684Z,10.90
2024-02-05T17:23:00.631Z,10.90
2024-02-05T17:25:30.407Z,10.90
2024-02-05T17:28:03.360Z,10.90
2024-02-05T17:30:33.240Z,10.90
2024-02-05T17:33:06.461Z,10.90
2024-02-05T17:35:36.712Z,10.80
2024-02-05T17:38:09.134Z,10.90
2024-02-05T17:40:43.794Z,10.90
2024-02-05T17:43:16.626Z,10.90
2024-02-05T17:45:50.151Z,11.00
2024-02-05T17:48:18.569Z,10.40
2024-02-05T17:50:50.118Z,11.20
2024-02-05T17:53:20.397Z,11.20
2024-02-05T17:55:52.235Z,11.30
2024-02-05T17:58:23.844Z,11.20
2024-02-05T18:01:17.548Z,11.30
2024-02-05T18:03:50.252Z,11.30
2024-02-05T18:06:21.617Z,11.30
2024-02-05T18:08:51.167Z,11.30
2024-02-05T18:11:23.366Z,11.30
2024-02-05T18:13:57.639Z,11.10
2024-02-05T18:16:29.407Z,11.20
2024-02-05T18:18:58.278Z,11.20
2024-02-05T18:21:28.971Z,11.10
2024-02-05T18:23:58.095Z,11.00
2024-02-05T18:26:30.961Z,11.00
2024-02-05T18:29:01.411Z,11.00
2024-02-05T18:31:30.783Z,11.10
2024-02-05T18:34:00.010Z,11.10
2024-02-05T18:36:29.152Z,11.10
2024-02-05T18:38:59.525Z,10.90
2024-02-05T18:41:28.479Z,11.00
2024-02-05T18:43:57.503Z,11.00
2024-02-05T18:46:28.867Z,11.00
2024-02-05T18:48:58.088Z,11.00
2024-02-05T18:51:27.097Z,11.00
2024-02-05T18:53:56.150Z,10.90
2024-02-05T18:56:24.828Z,11.10
2024-02-05T18:58:53.939Z,11.00
2024-02-05T19:01:22.917Z,10.90
2024-02-05T19:03:54.248Z,10.90
2024-02-05T19:06:26.256Z,10.90
2024-02-05T19:08:57.065Z,10.80
2024-02-05T19:11:26.089Z,10.80
2024-02-05T19:13:55.217Z,10.80
2024-02-05T19:16:24.587Z,10.80
2024-02-05T19:18:54.926Z,10.90
2024-02-05T19:21:24.266Z,10.90
2024-02-05T19:23:52.954Z,10.80
2024-02-05T19:26:25.062Z,10.80
2024-02-05T19:28:55.649Z,10.80
2024-02-05T19:31:24.903Z,11.60
2024-02-05T19:33:55.398Z,10.80
2024-02-05T19:36:24.661Z,10.90
2024-02-05T19:38:53.413Z,10.70
2024-02-05T19:41:23.648Z,10.80
2024-02-05T19:43:52.699Z,10.80
2024-02-05T19:46:22.020Z,10.30
2024-02-05T19:48:55.592Z,10.60
2024-02-05T19:51:28.122Z,10.80
2024-02-05T19:53:59.850Z,10.70
2024-02-05T19:56:29.453Z,10.60
2024-02-05T19:58:58.805Z,10.80
2024-02-05T20:01:28.319Z,10.60
2024-02-05T20:03:58.997Z,10.60
2024-02-05T20:06:28.124Z,10.50
2024-02-05T20:08:56.848Z,10.50
2024-02-05T20:11:25.767Z,10.40
2024-02-05T20:13:55.088Z,10.50
2024-02-05T20:16:28.727Z,10.70
2024-02-05T20:18:59.313Z,10.40
2024-02-05T20:21:29.248Z,10.40
2024-02-05T20:24:02.817Z,10.40
2024-02-05T20:26:31.562Z,10.30
2024-02-05T20:29:01.105Z,10.20
2024-02-05T20:31:33.444Z,10.40
2024-02-05T20:34:05.184Z,10.30
2024-02-05T20:36:34.406Z,10.20
2024-02-05T20:39:05.160Z,9.40
2024-02-05T20:41:33.904Z,10.20
2024-02-05T20:44:02.979Z,9.40
2024-02-05T20:46:31.757Z,10.00
2024-02-05T20:49:01.551Z,10.00
2024-02-05T20:51:33.155Z,10.10
2024-02-05T20:54:02.380Z,8.80
2024-02-05T20:56:31.472Z,9.90
2024-02-05T20:59:00.550Z,9.80
2024-02-05T21:01:29.625Z,10.00
2024-02-05T21:03:58.341Z,9.90
2024-02-05T21:06:27.359Z,9.90
2024-02-05T21:08:57.718Z,9.90
2024-02-05T21:11:27.400Z,9.90
2024-02-05T21:13:56.477Z,9.80
2024-02-05T21:16:25.499Z,9.80
2024-02-05T21:18:54.383Z,9.60
2024-02-05T21:21:23.445Z,9.60
2024-02-05T21:23:52.071Z,9.50
2024-02-05T21:26:22.716Z,9.50
2024-02-05T21:28:51.607Z,9.50
2024-02-05T21:31:20.684Z,9.40
2024-02-05T21:33:49.485Z,9.40
2024-02-05T21:36:18.261Z,9.50
2024-02-05T21:38:47.847Z,9.40
2024-02-05T21:41:16.896Z,9.40
2024-02-05T21:43:47.268Z,8.90
2024-02-05T21:46:16.316Z,9.30
2024-02-05T21:48:46.605Z,9.20
2024-02-05T21:51:15.219Z,9.10
2024-02-05T21:53:43.760Z,9.10
2024-02-05T21:56:12.195Z,9.00
2024-02-05T21:58:40.683Z,9.10
2024-02-05T22:01:10.598Z,9.00
2024-02-05T22:03:39.131Z,8.90
2024-02-05T22:06:08.227Z,8.90
2024-02-05T22:08:36.822Z,8.90
2024-02-05T22:11:05.573Z,8.80
2024-02-05T22:13:34.519Z,8.80
2024-02-05T22:16:03.154Z,8.70
2024-02-05T22:18:33.610Z,8.70
2024-02-05T22:21:02.415Z,8.60
2024-02-05T22:23:30.910Z,8.60
2024-02-05T22:25:59.380Z,8.60
2024-02-05T22:28:27.924Z,8.60
2024-02-05T22:30:56.368Z,8.60
2024-02-05T22:33:25.070Z,8.50
2024-02-05T22:35:57.896Z,8.50
2024-02-05T22:38:27.516Z,8.20
2024-02-05T22:40:55.945Z,7.80
2024-02-05T22:43:24.505Z,8.40
2024-02-05T22:45:52.995Z,8.40
2024-02-05T22:48:21.596Z,8.30
2024-02-05T22:50:50.080Z,8.30
2024-02-05T22:53:19.976Z,8.30
2024-02-05T22:55:48.353Z,8.30
2024-02-05T22:58:16.786Z,8.20
2024-02-05T23:00:45.382Z,8.20
2024-02-05T23:03:13.802Z,8.10
2024-02-05T23:05:42.441Z,8.10
2024-02-05T23:08:11.123Z,8.10
2024-02-05T23:10:41.091Z,8.10
2024-02-05T23:13:09.653Z,8.10
2024-02-05T23:15:38.108Z,8.10
2024-02-05T23:18:09.174Z,8.00
2024-02-05T23:20:37.685Z,8.00
2024-02-05T23:23:06.735Z,7.90
2024-02-05T23:25:35.370Z,7.90
2024-02-05T23:28:05.585Z,7.90
2024-02-05T23:30:34.231Z,7.80
2024-02-05T23:33:03.132Z,7.80
2024-02-05T23:35:31.601Z,7.80
2024-02-05T23:38:00.505Z,7.70
2024-02-05T23:40:29.003Z,7.70
2024-02-05T23:42:57.496Z,7.80
2024-02-05T23:45:27.393Z,7.70
2024-02-05T23:47:56.011Z,7.70
2024-02-05T23:50:24.617Z,7.60
2024-02-05T23:52:53.133Z,7.60
2024-02-05T23:55:21.729Z,7.60
2024-02-05T23:57:50.451Z,6.60
